sensor_id;sensor_type;location;lat;lon;timestamp;P1;durP1;ratioP1;P2;durP2;ratioP2
19897;SDS011;10111;50.814;4.572;2022-12-18T00:01:23;32.07;;;17.67;;
19897;SDS011;10111;50.814;4.572;2022-12-18T00:03:50;27.73;;;14.20;;
19897;SDS011;10111;50.814;4.572;2022-12-18T00:06:16;36.67;;;16.87;;
19897;SDS011;10111;50.814;4.572;2022-12-18T00:08:42;25.10;;;14.67;;
19897;SDS011;10111;50.814;4.572;2022-12-18T00:11:13;32.00;;;17.57;;
19897;SDS011;10111;50.814;4.572;2022-12-18T00:13:40;29.13;;;15.23;;
19897;SDS011;10111;50.814;4.572;2022-12-18T00:16:06;28.97;;;15.30;;
19897;SDS011;10111;50.814;4.572;2022-12-18T00:18:34;44.07;;;18.40;;
19897;SDS011;10111;50.814;4.572;2022-12-18T00:21:01;32.47;;;17.63;;
19897;SDS011;10111;50.814;4.572;2022-12-18T00:23:28;33.33;;;15.30;;
19897;SDS011;10111;50.814;4.572;2022-12-18T00:25:54;37.93;;;16.53;;
19897;SDS011;10111;50.814;4.572;2022-12-18T00:28:23;27.70;;;15.93;;
19897;SDS011;10111;50.814;4.572;2022-12-18T00:30:49;36.47;;;16.90;;
19897;SDS011;10111;50.814;4.572;2022-12-18T00:33:16;33.73;;;16.23;;
19897;SDS011;10111;50.814;4.572;2022-12-18T00:35:42;32.20;;;15.10;;
19897;SDS011;10111;50.814;4.572;2022-12-18T00:38:08;28.70;;;14.83;;
19897;SDS011;10111;50.814;4.572;2022-12-18T00:40:33;31.03;;;15.53;;
19897;SDS011;10111;50.814;4.572;2022-12-18T00:42:59;30.43;;;16.57;;
19897;SDS011;10111;50.814;4.572;2022-12-18T00:45:26;37.13;;;17.10;;
19897;SDS011;10111;50.814;4.572;2022-12-18T00:47:53;31.70;;;16.23;;
19897;SDS011;10111;50.814;4.572;2022-12-18T00:50:19;30.27;;;16.47;;
19897;SDS011;10111;50.814;4.572;2022-12-18T00:52:45;29.20;;;15.17;;
19897;SDS011;10111;50.814;4.572;2022-12-18T00:55:11;30.17;;;13.93;;
19897;SDS011;10111;50.814;4.572;2022-12-18T00:57:37;24.83;;;12.47;;
19897;SDS011;10111;50.814;4.572;2022-12-18T01:00:04;31.53;;;13.73;;
19897;SDS011;10111;50.814;4.572;2022-12-18T01:02:31;24.77;;;13.27;;
19897;SDS011;10111;50.814;4.572;2022-12-18T01:04:56;33.33;;;17.53;;
19897;SDS011;10111;50.814;4.572;2022-12-18T01:07:22;39.93;;;17.63;;
19897;SDS011;10111;50.814;4.572;2022-12-18T01:09:48;33.47;;;16.50;;
19897;SDS011;10111;50.814;4.572;2022-12-18T01:12:13;28.10;;;16.87;;
19897;SDS011;10111;50.814;4.572;2022-12-18T01:14:39;27.83;;;15.40;;
19897;SDS011;10111;50.814;4.572;2022-12-18T01:17:04;32.10;;;16.33;;
19897;SDS011;10111;50.814;4.572;2022-12-18T01:19:30;36.93;;;18.13;;
19897;SDS011;10111;50.814;4.572;2022-12-18T01:21:56;36.17;;;18.17;;
19897;SDS011;10111;50.814;4.572;2022-12-18T01:24:22;43.27;;;21.07;;
19897;SDS011;10111;50.814;4.572;2022-12-18T01:26:48;40.27;;;19.47;;
19897;SDS011;10111;50.814;4.572;2022-12-18T01:29:13;35.33;;;20.83;;
19897;SDS011;10111;50.814;4.572;2022-12-18T01:31:39;41.63;;;22.00;;
19897;SDS011;10111;50.814;4.572;2022-12-18T01:34:05;37.83;;;19.17;;
19897;SDS011;10111;50.814;4.572;2022-12-18T01:36:31;42.73;;;20.47;;
19897;SDS011;10111;50.814;4.572;2022-12-18T01:38:59;40.60;;;22.13;;
19897;SDS011;10111;50.814;4.572;2022-12-18T01:41:27;37.03;;;21.20;;
19897;SDS011;10111;50.814;4.572;2022-12-18T01:50:13;38.20;;;19.17;;
19897;SDS011;10111;50.814;4.572;2022-12-18T01:52:48;33.80;;;18.43;;
19897;SDS011;10111;50.814;4.572;2022-12-18T01:55:18;35.93;;;17.03;;
19897;SDS011;10111;50.814;4.572;2022-12-18T01:57:46;35.43;;;17.43;;
19897;SDS011;10111;50.814;4.572;2022-12-18T02:00:13;37.17;;;17.70;;
19897;SDS011;10111;50.814;4.572;2022-12-18T02:02:42;31.13;;;17.30;;
19897;SDS011;10111;50.814;4.572;2022-12-18T02:05:10;36.40;;;17.70;;
19897;SDS011;10111;50.814;4.572;2022-12-18T02:07:51;42.97;;;19.70;;
19897;SDS011;10111;50.814;4.572;2022-12-18T02:10:27;40.13;;;18.60;;
19897;SDS011;10111;50.814;4.572;2022-12-18T02:13:16;35.20;;;17.73;;
19897;SDS011;10111;50.814;4.572;2022-12-18T02:18:24;35.43;;;17.10;;
19897;SDS011;10111;50.814;4.572;2022-12-18T02:23:46;34.60;;;19.13;;
19897;SDS011;10111;50.814;4.572;2022-12-18T02:29:12;34.43;;;18.07;;
19897;SDS011;10111;50.814;4.572;2022-12-18T02:31:43;45.07;;;19.87;;
19897;SDS011;10111;50.814;4.572;2022-12-18T02:34:14;32.23;;;19.07;;
19897;SDS011;10111;50.814;4.572;2022-12-18T02:36:41;38.10;;;20.90;;
19897;SDS011;10111;50.814;4.572;2022-12-18T02:39:10;45.93;;;21.47;;
19897;SDS011;10111;50.814;4.572;2022-12-18T02:41:37;27.27;;;16.07;;
19897;SDS011;10111;50.814;4.572;2022-12-18T02:44:11;36.80;;;19.63;;
19897;SDS011;10111;50.814;4.572;2022-12-18T02:46:45;34.23;;;18.97;;
19897;SDS011;10111;50.814;4.572;2022-12-18T02:52:31;30.73;;;17.37;;
19897;SDS011;10111;50.814;4.572;2022-12-18T02:55:19;33.10;;;17.67;;
19897;SDS011;10111;50.814;4.572;2022-12-18T03:00:24;28.97;;;16.23;;
19897;SDS011;10111;50.814;4.572;2022-12-18T03:02:57;36.77;;;16.57;;
19897;SDS011;10111;50.814;4.572;2022-12-18T03:05:37;31.53;;;14.40;;
19897;SDS011;10111;50.814;4.572;2022-12-18T03:08:18;26.53;;;15.27;;
19897;SDS011;10111;50.814;4.572;2022-12-18T03:10:49;32.63;;;15.73;;
19897;SDS011;10111;50.814;4.572;2022-12-18T03:13:42;32.47;;;15.33;;
19897;SDS011;10111;50.814;4.572;2022-12-18T03:16:17;31.23;;;18.00;;
19897;SDS011;10111;50.814;4.572;2022-12-18T03:18:54;34.97;;;17.00;;
19897;SDS011;10111;50.814;4.572;2022-12-18T03:21:23;38.67;;;16.13;;
19897;SDS011;10111;50.814;4.572;2022-12-18T03:23:53;29.47;;;16.60;;
19897;SDS011;10111;50.814;4.572;2022-12-18T03:26:21;30.33;;;15.53;;
19897;SDS011;10111;50.814;4.572;2022-12-18T03:28:58;27.43;;;14.70;;
19897;SDS011;10111;50.814;4.572;2022-12-18T03:31:29;27.57;;;14.23;;
19897;SDS011;10111;50.814;4.572;2022-12-18T03:34:01;27.83;;;15.10;;
19897;SDS011;10111;50.814;4.572;2022-12-18T03:36:30;29.10;;;14.77;;
19897;SDS011;10111;50.814;4.572;2022-12-18T03:38:55;32.83;;;14.10;;
19897;SDS011;10111;50.814;4.572;2022-12-18T03:44:11;32.07;;;14.57;;
19897;SDS011;10111;50.814;4.572;2022-12-18T03:52:27;32.50;;;15.93;;
19897;SDS011;10111;50.814;4.572;2022-12-18T03:55:10;27.73;;;14.57;;
19897;SDS011;10111;50.814;4.572;2022-12-18T03:57:37;32.50;;;15.43;;
19897;SDS011;10111;50.814;4.572;2022-12-18T04:00:08;22.63;;;14.53;;
19897;SDS011;10111;50.814;4.572;2022-12-18T04:02:37;25.03;;;13.53;;
19897;SDS011;10111;50.814;4.572;2022-12-18T04:05:06;30.87;;;13.43;;
19897;SDS011;10111;50.814;4.572;2022-12-18T04:07:33;28.63;;;15.67;;
19897;SDS011;10111;50.814;4.572;2022-12-18T04:10:01;29.63;;;14.57;;
19897;SDS011;10111;50.814;4.572;2022-12-18T04:12:28;19.33;;;12.10;;
19897;SDS011;10111;50.814;4.572;2022-12-18T04:14:55;32.47;;;13.30;;
19897;SDS011;10111;50.814;4.572;2022-12-18T04:17:20;28.43;;;12.53;;
19897;SDS011;10111;50.814;4.572;2022-12-18T04:19:47;26.07;;;14.30;;
19897;SDS011;10111;50.814;4.572;2022-12-18T04:22:13;29.07;;;13.43;;
19897;SDS011;10111;50.814;4.572;2022-12-18T04:24:38;23.73;;;12.47;;
19897;SDS011;10111;50.814;4.572;2022-12-18T04:27:04;31.13;;;15.27;;
19897;SDS011;10111;50.814;4.572;2022-12-18T04:29:30;21.77;;;11.80;;
19897;SDS011;10111;50.814;4.572;2022-12-18T04:31:55;28.57;;;11.77;;
19897;SDS011;10111;50.814;4.572;2022-12-18T04:34:21;24.63;;;12.07;;
19897;SDS011;10111;50.814;4.572;2022-12-18T04:36:47;29.47;;;15.23;;
19897;SDS011;10111;50.814;4.572;2022-12-18T04:39:13;26.63;;;12.57;;
19897;SDS011;10111;50.814;4.572;2022-12-18T04:41:39;22.43;;;12.83;;
19897;SDS011;10111;50.814;4.572;2022-12-18T04:44:04;26.67;;;14.27;;
19897;SDS011;10111;50.814;4.572;2022-12-18T04:46:30;25.50;;;12.07;;
19897;SDS011;10111;50.814;4.572;2022-12-18T04:48:56;32.20;;;14.27;;
19897;SDS011;10111;50.814;4.572;2022-12-18T04:51:21;24.53;;;12.90;;
19897;SDS011;10111;50.814;4.572;2022-12-18T04:53:47;20.90;;;10.50;;
19897;SDS011;10111;50.814;4.572;2022-12-18T04:56:13;29.17;;;13.33;;
19897;SDS011;10111;50.814;4.572;2022-12-18T04:58:41;28.03;;;11.97;;
19897;SDS011;10111;50.814;4.572;2022-12-18T05:01:08;24.77;;;13.03;;
19897;SDS011;10111;50.814;4.572;2022-12-18T05:03:34;19.03;;;10.80;;
19897;SDS011;10111;50.814;4.572;2022-12-18T05:06:01;26.97;;;12.23;;
19897;SDS011;10111;50.814;4.572;2022-12-18T05:08:26;20.13;;;11.10;;
19897;SDS011;10111;50.814;4.572;2022-12-18T05:11:02;23.90;;;12.00;;
19897;SDS011;10111;50.814;4.572;2022-12-18T05:13:30;18.27;;;10.17;;
19897;SDS011;10111;50.814;4.572;2022-12-18T05:15:59;23.60;;;10.70;;
19897;SDS011;10111;50.814;4.572;2022-12-18T05:18:25;24.80;;;11.40;;
19897;SDS011;10111;50.814;4.572;2022-12-18T05:20:52;20.33;;;11.40;;
19897;SDS011;10111;50.814;4.572;2022-12-18T05:23:18;21.93;;;11.50;;
19897;SDS011;10111;50.814;4.572;2022-12-18T05:25:51;20.80;;;9.87;;
19897;SDS011;10111;50.814;4.572;2022-12-18T05:28:21;24.97;;;12.23;;
19897;SDS011;10111;50.814;4.572;2022-12-18T05:30:52;26.07;;;10.50;;
19897;SDS011;10111;50.814;4.572;2022-12-18T05:33:19;22.23;;;11.70;;
19897;SDS011;10111;50.814;4.572;2022-12-18T05:35:54;23.00;;;11.47;;
19897;SDS011;10111;50.814;4.572;2022-12-18T05:38:22;22.57;;;10.50;;
19897;SDS011;10111;50.814;4.572;2022-12-18T05:40:49;23.67;;;11.97;;
19897;SDS011;10111;50.814;4.572;2022-12-18T05:43:15;21.60;;;10.93;;
19897;SDS011;10111;50.814;4.572;2022-12-18T05:45:41;25.00;;;12.37;;
19897;SDS011;10111;50.814;4.572;2022-12-18T05:48:07;15.60;;;10.33;;
19897;SDS011;10111;50.814;4.572;2022-12-18T05:50:35;18.63;;;9.90;;
19897;SDS011;10111;50.814;4.572;2022-12-18T05:53:02;21.10;;;11.13;;
19897;SDS011;10111;50.814;4.572;2022-12-18T05:55:28;21.30;;;10.27;;
19897;SDS011;10111;50.814;4.572;2022-12-18T05:57:54;23.07;;;12.20;;
19897;SDS011;10111;50.814;4.572;2022-12-18T06:00:20;22.73;;;10.23;;
19897;SDS011;10111;50.814;4.572;2022-12-18T06:02:48;19.30;;;10.67;;
19897;SDS011;10111;50.814;4.572;2022-12-18T06:05:14;24.50;;;12.10;;
19897;SDS011;10111;50.814;4.572;2022-12-18T06:07:40;19.17;;;10.03;;
19897;SDS011;10111;50.814;4.572;2022-12-18T06:10:05;17.80;;;9.67;;
19897;SDS011;10111;50.814;4.572;2022-12-18T06:12:31;17.87;;;9.17;;
19897;SDS011;10111;50.814;4.572;2022-12-18T06:14:58;16.43;;;9.30;;
19897;SDS011;10111;50.814;4.572;2022-12-18T06:17:31;19.20;;;10.33;;
19897;SDS011;10111;50.814;4.572;2022-12-18T06:19:58;23.47;;;9.90;;
19897;SDS011;10111;50.814;4.572;2022-12-18T06:22:24;20.93;;;10.20;;
19897;SDS011;10111;50.814;4.572;2022-12-18T06:24:50;26.20;;;10.80;;
19897;SDS011;10111;50.814;4.572;2022-12-18T06:27:16;17.17;;;9.00;;
19897;SDS011;10111;50.814;4.572;2022-12-18T06:29:42;23.30;;;10.03;;
19897;SDS011;10111;50.814;4.572;2022-12-18T06:32:08;21.63;;;10.97;;
19897;SDS011;10111;50.814;4.572;2022-12-18T06:34:34;26.30;;;11.27;;
19897;SDS011;10111;50.814;4.572;2022-12-18T06:37:02;22.30;;;10.10;;
19897;SDS011;10111;50.814;4.572;2022-12-18T06:39:27;22.70;;;10.57;;
19897;SDS011;10111;50.814;4.572;2022-12-18T06:41:53;24.13;;;9.87;;
19897;SDS011;10111;50.814;4.572;2022-12-18T06:44:19;21.53;;;10.57;;
19897;SDS011;10111;50.814;4.572;2022-12-18T06:46:44;22.60;;;10.47;;
19897;SDS011;10111;50.814;4.572;2022-12-18T06:49:10;20.03;;;10.07;;
19897;SDS011;10111;50.814;4.572;2022-12-18T06:51:36;24.53;;;9.63;;
19897;SDS011;10111;50.814;4.572;2022-12-18T06:54:02;18.43;;;8.83;;
19897;SDS011;10111;50.814;4.572;2022-12-18T06:56:27;21.37;;;9.00;;
19897;SDS011;10111;50.814;4.572;2022-12-18T06:58:53;18.13;;;8.73;;
19897;SDS011;10111;50.814;4.572;2022-12-18T07:01:20;22.03;;;9.80;;
19897;SDS011;10111;50.814;4.572;2022-12-18T07:03:46;17.93;;;9.57;;
19897;SDS011;10111;50.814;4.572;2022-12-18T07:06:13;18.67;;;9.17;;
19897;SDS011;10111;50.814;4.572;2022-12-18T07:08:40;19.13;;;9.90;;
19897;SDS011;10111;50.814;4.572;2022-12-18T07:11:05;19.77;;;8.97;;
19897;SDS011;10111;50.814;4.572;2022-12-18T07:13:31;16.13;;;8.73;;
19897;SDS011;10111;50.814;4.572;2022-12-18T07:16:07;17.33;;;9.00;;
19897;SDS011;10111;50.814;4.572;2022-12-18T07:18:35;24.77;;;10.10;;
19897;SDS011;10111;50.814;4.572;2022-12-18T07:21:02;23.37;;;9.47;;
19897;SDS011;10111;50.814;4.572;2022-12-18T07:23:32;16.93;;;9.47;;
19897;SDS011;10111;50.814;4.572;2022-12-18T07:26:18;18.37;;;9.73;;
19897;SDS011;10111;50.814;4.572;2022-12-18T07:28:45;20.90;;;10.13;;
19897;SDS011;10111;50.814;4.572;2022-12-18T07:31:13;18.73;;;8.33;;
19897;SDS011;10111;50.814;4.572;2022-12-18T07:33:45;19.57;;;9.43;;
19897;SDS011;10111;50.814;4.572;2022-12-18T07:36:11;19.73;;;10.27;;
19897;SDS011;10111;50.814;4.572;2022-12-18T07:38:37;25.53;;;10.70;;
19897;SDS011;10111;50.814;4.572;2022-12-18T07:41:10;19.10;;;9.33;;
19897;SDS011;10111;50.814;4.572;2022-12-18T07:43:37;20.73;;;10.10;;
19897;SDS011;10111;50.814;4.572;2022-12-18T07:46:04;22.30;;;9.60;;
19897;SDS011;10111;50.814;4.572;2022-12-18T07:48:30;21.03;;;11.30;;
19897;SDS011;10111;50.814;4.572;2022-12-18T07:51:00;21.13;;;8.70;;
19897;SDS011;10111;50.814;4.572;2022-12-18T07:53:31;19.30;;;8.97;;
19897;SDS011;10111;50.814;4.572;2022-12-18T07:55:58;20.27;;;9.43;;
19897;SDS011;10111;50.814;4.572;2022-12-18T07:58:25;20.07;;;9.77;;
19897;SDS011;10111;50.814;4.572;2022-12-18T08:00:51;13.93;;;8.33;;
19897;SDS011;10111;50.814;4.572;2022-12-18T08:03:17;18.47;;;9.33;;
19897;SDS011;10111;50.814;4.572;2022-12-18T08:05:43;16.13;;;8.53;;
19897;SDS011;10111;50.814;4.572;2022-12-18T08:08:09;18.87;;;9.27;;
19897;SDS011;10111;50.814;4.572;2022-12-18T08:10:35;21.33;;;11.17;;
19897;SDS011;10111;50.814;4.572;2022-12-18T08:13:01;16.33;;;8.60;;
19897;SDS011;10111;50.814;4.572;2022-12-18T08:15:27;18.33;;;9.67;;
19897;SDS011;10111;50.814;4.572;2022-12-18T08:17:55;17.07;;;9.33;;
19897;SDS011;10111;50.814;4.572;2022-12-18T08:20:21;23.90;;;10.00;;
19897;SDS011;10111;50.814;4.572;2022-12-18T08:22:47;15.23;;;9.20;;
19897;SDS011;10111;50.814;4.572;2022-12-18T08:25:12;14.37;;;8.77;;
19897;SDS011;10111;50.814;4.572;2022-12-18T08:27:38;16.20;;;8.87;;
19897;SDS011;10111;50.814;4.572;2022-12-18T08:30:04;18.87;;;9.83;;
19897;SDS011;10111;50.814;4.572;2022-12-18T08:32:30;15.50;;;8.40;;
19897;SDS011;10111;50.814;4.572;2022-12-18T08:34:57;20.13;;;9.70;;
19897;SDS011;10111;50.814;4.572;2022-12-18T08:37:23;14.63;;;9.97;;
19897;SDS011;10111;50.814;4.572;2022-12-18T08:39:49;17.17;;;10.00;;
19897;SDS011;10111;50.814;4.572;2022-12-18T08:42:15;16.40;;;8.13;;
19897;SDS011;10111;50.814;4.572;2022-12-18T08:44:59;12.17;;;7.70;;
19897;SDS011;10111;50.814;4.572;2022-12-18T08:47:24;12.90;;;7.17;;
19897;SDS011;10111;50.814;4.572;2022-12-18T08:49:51;12.03;;;7.17;;
19897;SDS011;10111;50.814;4.572;2022-12-18T08:52:16;10.47;;;7.33;;
19897;SDS011;10111;50.814;4.572;2022-12-18T08:54:42;14.57;;;7.00;;
19897;SDS011;10111;50.814;4.572;2022-12-18T08:57:08;14.77;;;8.67;;
19897;SDS011;10111;50.814;4.572;2022-12-18T08:59:33;13.97;;;7.87;;
19897;SDS011;10111;50.814;4.572;2022-12-18T09:01:59;11.87;;;8.13;;
19897;SDS011;10111;50.814;4.572;2022-12-18T09:04:25;14.20;;;7.57;;
19897;SDS011;10111;50.814;4.572;2022-12-18T09:06:50;15.53;;;7.33;;
19897;SDS011;10111;50.814;4.572;2022-12-18T09:09:16;12.83;;;7.87;;
19897;SDS011;10111;50.814;4.572;2022-12-18T09:11:42;13.93;;;8.07;;
19897;SDS011;10111;50.814;4.572;2022-12-18T09:14:08;17.33;;;7.73;;
19897;SDS011;10111;50.814;4.572;2022-12-18T09:16:34;13.00;;;7.53;;
19897;SDS011;10111;50.814;4.572;2022-12-18T09:19:00;14.93;;;8.43;;
19897;SDS011;10111;50.814;4.572;2022-12-18T09:21:31;16.83;;;7.93;;
19897;SDS011;10111;50.814;4.572;2022-12-18T09:23:59;15.07;;;7.97;;
19897;SDS011;10111;50.814;4.572;2022-12-18T09:26:25;14.77;;;8.10;;
19897;SDS011;10111;50.814;4.572;2022-12-18T09:28:52;15.00;;;7.73;;
19897;SDS011;10111;50.814;4.572;2022-12-18T09:31:18;14.83;;;7.77;;
19897;SDS011;10111;50.814;4.572;2022-12-18T09:33:46;11.67;;;8.20;;
19897;SDS011;10111;50.814;4.572;2022-12-18T09:36:13;11.90;;;8.37;;
19897;SDS011;10111;50.814;4.572;2022-12-18T09:38:40;10.30;;;7.47;;
19897;SDS011;10111;50.814;4.572;2022-12-18T09:41:15;14.23;;;7.90;;
19897;SDS011;10111;50.814;4.572;2022-12-18T09:43:57;15.73;;;7.30;;
19897;SDS011;10111;50.814;4.572;2022-12-18T09:46:27;12.47;;;7.97;;
19897;SDS011;10111;50.814;4.572;2022-12-18T09:48:57;14.70;;;8.23;;
19897;SDS011;10111;50.814;4.572;2022-12-18T09:51:28;14.53;;;7.97;;
19897;SDS011;10111;50.814;4.572;2022-12-18T09:54:01;11.13;;;7.90;;
19897;SDS011;10111;50.814;4.572;2022-12-18T09:56:32;12.17;;;7.33;;
19897;SDS011;10111;50.814;4.572;2022-12-18T09:59:03;10.83;;;7.47;;
19897;SDS011;10111;50.814;4.572;2022-12-18T10:01:30;15.53;;;9.20;;
19897;SDS011;10111;50.814;4.572;2022-12-18T10:03:57;14.37;;;8.33;;
19897;SDS011;10111;50.814;4.572;2022-12-18T10:20:49;14.47;;;9.33;;
19897;SDS011;10111;50.814;4.572;2022-12-18T10:23:39;17.03;;;8.57;;
19897;SDS011;10111;50.814;4.572;2022-12-18T10:26:13;13.77;;;9.83;;
19897;SDS011;10111;50.814;4.572;2022-12-18T10:28:40;10.83;;;7.73;;
19897;SDS011;10111;50.814;4.572;2022-12-18T10:31:16;14.87;;;8.87;;
19897;SDS011;10111;50.814;4.572;2022-12-18T10:33:44;18.17;;;9.30;;
19897;SDS011;10111;50.814;4.572;2022-12-18T10:36:10;14.80;;;8.33;;
19897;SDS011;10111;50.814;4.572;2022-12-18T10:38:36;15.73;;;8.83;;
19897;SDS011;10111;50.814;4.572;2022-12-18T10:41:24;13.37;;;9.30;;
19897;SDS011;10111;50.814;4.572;2022-12-18T10:44:12;18.37;;;10.13;;
19897;SDS011;10111;50.814;4.572;2022-12-18T10:46:43;13.97;;;9.47;;
19897;SDS011;10111;50.814;4.572;2022-12-18T10:49:23;12.73;;;9.27;;
19897;SDS011;10111;50.814;4.572;2022-12-18T10:52:03;15.77;;;9.63;;
19897;SDS011;10111;50.814;4.572;2022-12-18T10:54:57;17.23;;;10.53;;
19897;SDS011;10111;50.814;4.572;2022-12-18T10:59:56;14.80;;;8.77;;
19897;SDS011;10111;50.814;4.572;2022-12-18T11:05:00;19.53;;;10.17;;
19897;SDS011;10111;50.814;4.572;2022-12-18T11:07:26;17.70;;;10.40;;
19897;SDS011;10111;50.814;4.572;2022-12-18T11:10:17;16.87;;;9.37;;
19897;SDS011;10111;50.814;4.572;2022-12-18T11:12:44;16.90;;;9.57;;
19897;SDS011;10111;50.814;4.572;2022-12-18T11:15:29;16.60;;;10.47;;
19897;SDS011;10111;50.814;4.572;2022-12-18T11:17:55;15.90;;;10.33;;
19897;SDS011;10111;50.814;4.572;2022-12-18T11:20:31;15.67;;;9.63;;
19897;SDS011;10111;50.814;4.572;2022-12-18T11:23:04;15.90;;;10.17;;
19897;SDS011;10111;50.814;4.572;2022-12-18T11:25:36;17.10;;;9.27;;
19897;SDS011;10111;50.814;4.572;2022-12-18T11:28:03;15.07;;;9.93;;
19897;SDS011;10111;50.814;4.572;2022-12-18T11:30:49;20.20;;;10.47;;
19897;SDS011;10111;50.814;4.572;2022-12-18T11:33:45;17.40;;;9.97;;
19897;SDS011;10111;50.814;4.572;2022-12-18T11:36:33;19.63;;;10.70;;
19897;SDS011;10111;50.814;4.572;2022-12-18T11:39:11;16.23;;;11.27;;
19897;SDS011;10111;50.814;4.572;2022-12-18T11:41:50;18.80;;;10.97;;
19897;SDS011;10111;50.814;4.572;2022-12-18T11:44:46;16.40;;;10.73;;
19897;SDS011;10111;50.814;4.572;2022-12-18T11:47:34;14.30;;;8.73;;
19897;SDS011;10111;50.814;4.572;2022-12-18T11:50:10;20.30;;;12.17;;
19897;SDS011;10111;50.814;4.572;2022-12-18T11:52:39;21.03;;;11.13;;
19897;SDS011;10111;50.814;4.572;2022-12-18T11:55:16;19.93;;;11.27;;
19897;SDS011;10111;50.814;4.572;2022-12-18T12:00:20;20.83;;;12.03;;
19897;SDS011;10111;50.814;4.572;2022-12-18T12:08:43;20.93;;;12.27;;
19897;SDS011;10111;50.814;4.572;2022-12-18T12:16:48;18.73;;;11.03;;
19897;SDS011;10111;50.814;4.572;2022-12-18T12:22:22;19.33;;;11.63;;
19897;SDS011;10111;50.814;4.572;2022-12-18T12:30:11;21.40;;;11.57;;
19897;SDS011;10111;50.814;4.572;2022-12-18T12:33:00;19.67;;;11.90;;
19897;SDS011;10111;50.814;4.572;2022-12-18T12:38:24;18.77;;;11.23;;
19897;SDS011;10111;50.814;4.572;2022-12-18T12:41:03;21.20;;;12.00;;
19897;SDS011;10111;50.814;4.572;2022-12-18T12:43:51;20.50;;;11.43;;
19897;SDS011;10111;50.814;4.572;2022-12-18T12:46:19;19.97;;;11.47;;
19897;SDS011;10111;50.814;4.572;2022-12-18T12:48:50;18.03;;;10.57;;
19897;SDS011;10111;50.814;4.572;2022-12-18T12:51:26;19.10;;;10.93;;
19897;SDS011;10111;50.814;4.572;2022-12-18T12:53:56;19.50;;;10.40;;
19897;SDS011;10111;50.814;4.572;2022-12-18T12:56:24;21.73;;;13.50;;
19897;SDS011;10111;50.814;4.572;2022-12-18T12:59:02;20.83;;;12.97;;
19897;SDS011;10111;50.814;4.572;2022-12-18T13:12:52;20.87;;;11.27;;
19897;SDS011;10111;50.814;4.572;2022-12-18T13:23:01;20.50;;;12.27;;
19897;SDS011;10111;50.814;4.572;2022-12-18T13:26:27;19.57;;;11.73;;
19897;SDS011;10111;50.814;4.572;2022-12-18T13:31:28;22.60;;;13.50;;
19897;SDS011;10111;50.814;4.572;2022-12-18T13:34:16;21.67;;;13.27;;
19897;SDS011;10111;50.814;4.572;2022-12-18T13:36:45;23.43;;;14.17;;
19897;SDS011;10111;50.814;4.572;2022-12-18T13:41:43;21.90;;;13.07;;
19897;SDS011;10111;50.814;4.572;2022-12-18T13:46:43;21.43;;;13.03;;
19897;SDS011;10111;50.814;4.572;2022-12-18T13:51:39;17.47;;;11.93;;
19897;SDS011;10111;50.814;4.572;2022-12-18T13:56:55;20.63;;;11.93;;
19897;SDS011;10111;50.814;4.572;2022-12-18T14:01:48;23.43;;;12.17;;
19897;SDS011;10111;50.814;4.572;2022-12-18T14:04:24;25.37;;;12.83;;
19897;SDS011;10111;50.814;4.572;2022-12-18T14:09:24;24.40;;;15.37;;
19897;SDS011;10111;50.814;4.572;2022-12-18T14:11:52;22.87;;;16.23;;
19897;SDS011;10111;50.814;4.572;2022-12-18T14:14:43;28.53;;;18.13;;
19897;SDS011;10111;50.814;4.572;2022-12-18T14:17:12;24.80;;;16.20;;
19897;SDS011;10111;50.814;4.572;2022-12-18T14:19:42;24.90;;;14.60;;
19897;SDS011;10111;50.814;4.572;2022-12-18T14:22:18;19.93;;;12.03;;
19897;SDS011;10111;50.814;4.572;2022-12-18T14:27:44;23.63;;;12.80;;
19897;SDS011;10111;50.814;4.572;2022-12-18T14:30:23;22.80;;;13.00;;
19897;SDS011;10111;50.814;4.572;2022-12-18T14:35:34;23.30;;;12.57;;
19897;SDS011;10111;50.814;4.572;2022-12-18T14:40:45;24.53;;;14.10;;
19897;SDS011;10111;50.814;4.572;2022-12-18T14:43:11;25.13;;;14.60;;
19897;SDS011;10111;50.814;4.572;2022-12-18T14:45:41;21.30;;;12.90;;
19897;SDS011;10111;50.814;4.572;2022-12-18T14:48:19;21.37;;;13.23;;
19897;SDS011;10111;50.814;4.572;2022-12-18T14:53:26;30.27;;;16.33;;
19897;SDS011;10111;50.814;4.572;2022-12-18T14:55:59;23.73;;;13.83;;
19897;SDS011;10111;50.814;4.572;2022-12-18T14:58:25;22.97;;;14.10;;
19897;SDS011;10111;50.814;4.572;2022-12-18T15:00:51;23.77;;;13.53;;
19897;SDS011;10111;50.814;4.572;2022-12-18T15:03:20;29.90;;;15.70;;
19897;SDS011;10111;50.814;4.572;2022-12-18T15:05:46;25.97;;;14.57;;
19897;SDS011;10111;50.814;4.572;2022-12-18T15:11:01;22.70;;;12.83;;
19897;SDS011;10111;50.814;4.572;2022-12-18T15:13:27;23.87;;;12.97;;
19897;SDS011;10111;50.814;4.572;2022-12-18T15:15:54;20.93;;;12.63;;
19897;SDS011;10111;50.814;4.572;2022-12-18T15:18:33;26.90;;;14.13;;
19897;SDS011;10111;50.814;4.572;2022-12-18T15:21:09;21.87;;;13.73;;
19897;SDS011;10111;50.814;4.572;2022-12-18T15:23:49;23.63;;;12.87;;
19897;SDS011;10111;50.814;4.572;2022-12-18T15:26:18;21.67;;;13.33;;
19897;SDS011;10111;50.814;4.572;2022-12-18T15:28:52;24.90;;;14.40;;
19897;SDS011;10111;50.814;4.572;2022-12-18T15:31:30;25.30;;;13.83;;
19897;SDS011;10111;50.814;4.572;2022-12-18T15:36:35;23.20;;;13.20;;
19897;SDS011;10111;50.814;4.572;2022-12-18T15:39:02;27.90;;;15.33;;
19897;SDS011;10111;50.814;4.572;2022-12-18T15:41:30;24.43;;;14.27;;
19897;SDS011;10111;50.814;4.572;2022-12-18T15:44:00;23.73;;;12.73;;
19897;SDS011;10111;50.814;4.572;2022-12-18T15:46:25;25.53;;;13.20;;
19897;SDS011;10111;50.814;4.572;2022-12-18T15:48:55;24.47;;;12.93;;
19897;SDS011;10111;50.814;4.572;2022-12-18T15:51:35;27.17;;;14.07;;
19897;SDS011;10111;50.814;4.572;2022-12-18T15:54:03;28.15;;;14.73;;
19897;SDS011;10111;50.814;4.572;2022-12-18T15:56:30;23.40;;;13.20;;
19897;SDS011;10111;50.814;4.572;2022-12-18T15:59:16;27.13;;;15.03;;
19897;SDS011;10111;50.814;4.572;2022-12-18T16:01:46;24.40;;;14.07;;
19897;SDS011;10111;50.814;4.572;2022-12-18T16:04:14;24.30;;;13.00;;
19897;SDS011;10111;50.814;4.572;2022-12-18T16:06:41;27.13;;;14.60;;
19897;SDS011;10111;50.814;4.572;2022-12-18T16:09:07;26.20;;;13.63;;
19897;SDS011;10111;50.814;4.572;2022-12-18T16:11:34;24.00;;;13.97;;
19897;SDS011;10111;50.814;4.572;2022-12-18T16:14:18;23.17;;;13.33;;
19897;SDS011;10111;50.814;4.572;2022-12-18T16:16:50;23.60;;;13.20;;
19897;SDS011;10111;50.814;4.572;2022-12-18T16:19:17;23.07;;;13.67;;
19897;SDS011;10111;50.814;4.572;2022-12-18T16:21:43;24.07;;;13.57;;
19897;SDS011;10111;50.814;4.572;2022-12-18T16:24:17;27.53;;;14.57;;
19897;SDS011;10111;50.814;4.572;2022-12-18T16:26:44;21.97;;;12.90;;
19897;SDS011;10111;50.814;4.572;2022-12-18T16:29:10;23.53;;;12.97;;
19897;SDS011;10111;50.814;4.572;2022-12-18T16:31:36;26.60;;;14.23;;
19897;SDS011;10111;50.814;4.572;2022-12-18T16:36:37;24.03;;;13.20;;
19897;SDS011;10111;50.814;4.572;2022-12-18T16:39:02;28.63;;;13.90;;
19897;SDS011;10111;50.814;4.572;2022-12-18T16:41:28;25.70;;;12.87;;
19897;SDS011;10111;50.814;4.572;2022-12-18T16:44:00;22.83;;;14.23;;
19897;SDS011;10111;50.814;4.572;2022-12-18T16:46:26;23.80;;;13.07;;
19897;SDS011;10111;50.814;4.572;2022-12-18T16:48:51;25.63;;;13.03;;
19897;SDS011;10111;50.814;4.572;2022-12-18T16:51:17;25.40;;;13.63;;